Terminal Aerodrome Forecast
Issued by NWS

Home | Current Version | Previous Version | Text Only | Print | Product List | Glossary On
Versions: 1 2 3 4 5 6 7 8 9 10 11 12 13 14 15 16 17 18 19 20 21 22 23 24 25 26 27 28 29 30 31 32 33 34 35 36 37 38 39 40 41 42 43 44 45 46 47 48 49 50
050
FTUS41 KGYX 101732
TAFMHT
TAF
KMHT 101732Z 1018/1118 24003KT 1 1/2SM -SN BR OVC025
     FM102100 26004KT 5SM -SHSN BR OVC035
     FM110100 28004KT P6SM BKN050
     FM111200 30008KT 5SM -SHSN BR OVC030=

USA.gov is the U.S. government's official web portal to all federal, state and local government web resources and services.